• Join FlightAware (Why Join?)
  • Login
  • US Flag 
03:58AM EDT


 

Airport Tracker/Info


-or-


 

Live Flight TrackerFlight Track Log ✈ IBE483 ✈ 11-Apr-2013 ✈ LEAS / OVD - LEMD / MAD

Flight Track Log - Related Links

Times and Time Zones

All times are in EDT time to prevent confusion due to time zone crossing. See the IBE483 flight status page for this flight to view local times or setup timezone preferences in your user account.

Time Position Orientation Groundspeed Altitude Reporting Facility
EDT Latitude Longitude Course Direction KTS MPH feet Rate Location/Type
04:17PM 43.2255 -5.7487 148° Southeast  Level Estimated
04:18PM 43.1409 -5.6777 149° Southeast  Level Estimated
04:19PM 43.0563 -5.6069 149° Southeast  Level Estimated
04:20PM 42.9715 -5.5363 149° Southeast  Level Estimated
04:21PM 42.8868 -5.4659 149° Southeast  Level Estimated
04:22PM 42.8020 -5.3957 149° Southeast  Level Estimated
04:23PM 42.7172 -5.3257 149° Southeast  Level Estimated
04:24PM 42.6323 -5.2558 149° Southeast  Level Estimated
04:25PM 42.5474 -5.1862 149° Southeast  Level Estimated
04:26PM 42.4624 -5.1167 149° Southeast  Level Estimated
04:27PM 42.3774 -5.0475 149° Southeast  Level Estimated
04:28PM 42.2924 -4.9784 149° Southeast  Level Estimated
04:29PM 42.2073 -4.9095 149° Southeast  Level Estimated
04:30PM 42.1221 -4.8408 149° Southeast  Level Estimated
04:31PM 42.0370 -4.7723 149° Southeast  Level Estimated
04:32PM 41.9518 -4.7040 149° Southeast  Level Estimated
04:33PM 41.8665 -4.6358 149° Southeast  Level Estimated
04:34PM 41.7812 -4.5679 149° Southeast  Level Estimated
04:35PM 41.6959 -4.5001 149° Southeast  Level Estimated
04:36PM 41.6105 -4.4325 149° Southeast  Level Estimated
04:37PM 41.5251 -4.3650 149° Southeast  Level Estimated
04:38PM 41.4397 -4.2978 149° Southeast  Level Estimated
04:39PM 41.3542 -4.2307 149° Southeast  Level Estimated
04:40PM 41.2686 -4.1638 150° Southeast  Level Estimated
04:41PM 41.1831 -4.0971 150° Southeast  Level Estimated
04:42PM 41.0975 -4.0306 150° Southeast  Level Estimated
04:43PM 41.0118 -3.9642 150° Southeast  Level Estimated
04:44PM 40.9261 -3.8980 150° Southeast  Level Estimated
04:45PM 40.8404 -3.8319 150° Southeast  Level Estimated
04:46PM 40.7547 -3.7661 150° Southeast  Level Estimated
04:47PM 40.6689 -3.7004 150° Southeast  Level Estimated
04:48PM 40.5830 -3.6349 150° Southeast  Level Estimated
04:49PM 40.4972 -3.5695 150° Southeast  Level Estimated
04:50PM 40.4936 -3.5668 150° Southeast  Level Estimated
04:51PM 40.4936 -3.5668 217° Southwest  Level Estimated
04:52PM 40.4936 -3.5668 217° Southwest  Level Estimated
04:53PM 40.4936 -3.5668 217° Southwest  Level Estimated
04:54PM 40.4936 -3.5668 217° Southwest  Level Estimated
04:55PM 40.4936 -3.5668 217° Southwest  Level Estimated
04:56PM 40.4936 -3.5668 217° Southwest  Level Estimated
04:57PM 40.4936 -3.5668 217° Southwest  Level Estimated
04:58PM 40.4936 -3.5668 217° Southwest  Level Estimated
04:59PM 40.4936 -3.5668 217° Southwest  Level Estimated
05:00PM 40.4936 -3.5668 217° Southwest  Level Estimated
05:01PM 40.4936 -3.5668 217° Southwest  Level Estimated
05:02PM 40.4936 -3.5668 217° Southwest  Level Estimated
05:03PM 40.4936 -3.5668 217° Southwest  Level Estimated
05:04PM 40.4936 -3.5668 217° Southwest  Level Estimated
05:05PM 40.4936 -3.5668 217° Southwest  Level Estimated